Time;durP1;ratioP1;P1;durP2;ratioP2;P2;SDS_P1;SDS_P2;PMS_P1;PMS_P2;Temp;Humidity;BMP_temperature;BMP_pressure;BME280_temperature;BME280_humidity;BME280_pressure;Samples;Min_cycle;Max_cycle;Signal;HPM_P1;HPM_P2
2021/05/26 00:00:34;;;;;;;13.95;5.60;;;;;;;;;;4993939;28;20033;-70
2021/05/26 00:03:00;;;;;;;17.10;5.72;;;;;;;;;;4998907;28;20038;-70
2021/05/26 00:05:29;;;;;;;20.05;6.75;;;;;;;;;;5003273;28;20026;-70
2021/05/26 00:07:54;;;;;;;32.40;5.55;;;;;;;;;;5004439;28;20049;-70
2021/05/26 00:10:20;;;;;;;21.58;4.55;;;;;;;;;;5001206;28;20065;-70
2021/05/26 00:12:46;;;;;;;17.00;4.78;;;;;;;;;;5007779;28;20048;-70
2021/05/26 00:15:13;;;;;;;15.65;4.30;;;;;;;;;;5000017;28;20116;-70
2021/05/26 00:17:39;;;;;;;13.98;3.72;;;;;;;;;;5003086;28;20030;-70
2021/05/26 00:20:06;;;;;;;11.27;3.38;;;;;;;;;;5001111;28;20034;-70
2021/05/26 00:22:32;;;;;;;15.40;2.85;;;;;;;;;;5003260;28;20057;-70
2021/05/26 00:24:58;;;;;;;10.10;2.40;;;;;;;;;;5001710;28;20529;-70
2021/05/26 00:27:24;;;;;;;7.40;2.13;;;;;;;;;;5003317;28;20341;-70
2021/05/26 00:29:50;;;;;;;7.93;2.47;;;;;;;;;;5001244;28;20146;-70
2021/05/26 00:32:16;;;;;;;5.70;2.22;;;;;;;;;;4995092;28;20021;-70
2021/05/26 00:34:42;;;;;;;6.53;1.77;;;;;;;;;;5005254;28;20045;-70
2021/05/26 00:37:08;;;;;;;4.97;2.05;;;;;;;;;;5005682;28;20518;-70
2021/05/26 00:39:34;;;;;;;7.22;1.85;;;;;;;;;;5003897;28;20072;-70
2021/05/26 00:42:00;;;;;;;8.27;2.20;;;;;;;;;;5008220;28;20386;-70
2021/05/26 00:44:26;;;;;;;5.95;2.28;;;;;;;;;;5001834;28;20030;-70
2021/05/26 00:46:52;;;;;;;5.95;2.10;;;;;;;;;;5009070;28;20079;-70
2021/05/26 00:49:18;;;;;;;5.80;2.83;;;;;;;;;;5003938;28;20096;-70
2021/05/26 00:51:44;;;;;;;8.30;2.97;;;;;;;;;;5006791;28;20041;-70
2021/05/26 00:54:10;;;;;;;6.50;2.75;;;;;;;;;;4995714;28;20033;-70
2021/05/26 00:56:37;;;;;;;12.52;3.95;;;;;;;;;;5000229;28;20031;-70
2021/05/26 00:59:03;;;;;;;14.32;3.53;;;;;;;;;;5003390;28;20053;-70
2021/05/26 01:01:29;;;;;;;10.13;3.08;;;;;;;;;;5010996;28;20030;-70
2021/05/26 01:03:56;;;;;;;10.20;3.85;;;;;;;;;;5007694;28;20095;-70
2021/05/26 01:06:22;;;;;;;11.48;4.80;;;;;;;;;;4997455;28;20030;-70
2021/05/26 01:08:48;;;;;;;12.20;4.50;;;;;;;;;;5009377;28;20017;-70
2021/05/26 01:11:14;;;;;;;21.60;6.72;;;;;;;;;;5005237;28;20480;-70
2021/05/26 01:13:40;;;;;;;19.58;7.63;;;;;;;;;;5001792;28;20025;-70
2021/05/26 01:16:06;;;;;;;21.25;7.15;;;;;;;;;;5006788;28;20384;-70
2021/05/26 01:18:33;;;;;;;17.55;6.68;;;;;;;;;;5003940;28;20104;-70
2021/05/26 01:21:00;;;;;;;15.60;6.07;;;;;;;;;;5008822;28;20033;-70
2021/05/26 01:23:27;;;;;;;9.00;3.15;;;;;;;;;;5004054;28;20026;-70
2021/05/26 01:25:54;;;;;;;8.05;3.15;;;;;;;;;;5009603;28;20391;-70
2021/05/26 01:28:20;;;;;;;12.57;2.92;;;;;;;;;;5005181;28;20096;-70
2021/05/26 01:30:46;;;;;;;10.32;2.83;;;;;;;;;;5005088;28;20022;-69
2021/05/26 01:33:13;;;;;;;11.80;2.97;;;;;;;;;;5002938;28;20029;-69
2021/05/26 01:35:40;;;;;;;6.65;2.10;;;;;;;;;;5003853;28;20532;-69
2021/05/26 01:38:06;;;;;;;5.93;2.50;;;;;;;;;;5009176;28;20033;-70
2021/05/26 01:40:32;;;;;;;9.68;2.97;;;;;;;;;;5005374;28;20502;-70
2021/05/26 01:42:58;;;;;;;12.10;2.97;;;;;;;;;;5001330;28;20026;-70
2021/05/26 01:45:24;;;;;;;12.38;3.50;;;;;;;;;;5009742;28;20472;-70
2021/05/26 01:47:50;;;;;;;9.73;3.40;;;;;;;;;;5001897;28;20041;-70
2021/05/26 01:50:20;;;;;;;13.13;3.08;;;;;;;;;;5009485;28;20056;-70
2021/05/26 01:53:06;;;;;;;19.75;3.58;;;;;;;;;;5003618;28;20379;-70
2021/05/26 01:55:32;;;;;;;17.48;4.65;;;;;;;;;;4995016;28;20376;-70
2021/05/26 02:00:37;;;;;;;9.85;4.15;;;;;;;;;;6018976;23;20020;-71
2021/05/26 02:03:03;;;;;;;9.13;3.35;;;;;;;;;;5004440;28;20567;-70
2021/05/26 02:05:29;;;;;;;11.23;3.90;;;;;;;;;;5008303;28;20030;-70
2021/05/26 02:07:55;;;;;;;16.92;4.18;;;;;;;;;;5010032;28;20056;-70
2021/05/26 02:12:21;;;;;;;12.52;5.07;;;;;;;;;;5011746;28;20109;-70
2021/05/26 02:13:07;;;;;;;24.27;5.18;;;;;;;;;;5024676;28;20029;-70
2021/05/26 02:15:33;;;;;;;16.27;5.38;;;;;;;;;;5036145;23;20053;-69
2021/05/26 02:17:59;;;;;;;15.43;5.30;;;;;;;;;;5027440;28;20473;-69
2021/05/26 02:20:25;;;;;;;14.05;4.93;;;;;;;;;;5032328;28;20083;-69
2021/05/26 02:22:51;;;;;;;13.30;4.60;;;;;;;;;;5036562;28;20072;-70
2021/05/26 02:25:17;;;;;;;10.23;4.57;;;;;;;;;;5041097;28;20106;-69
2021/05/26 02:27:43;;;;;;;12.60;5.03;;;;;;;;;;5033157;28;20029;-69
2021/05/26 02:30:09;;;;;;;14.05;4.93;;;;;;;;;;5057531;28;20040;-69
2021/05/26 02:32:35;;;;;;;11.98;5.38;;;;;;;;;;5031923;28;20497;-69
2021/05/26 02:35:01;;;;;;;13.40;5.38;;;;;;;;;;5039873;28;20025;-70
2021/05/26 02:37:27;;;;;;;11.35;5.68;;;;;;;;;;5044245;28;20477;-69
2021/05/26 02:39:53;;;;;;;9.48;5.45;;;;;;;;;;5060698;28;20115;-69
2021/05/26 02:42:19;;;;;;;12.60;5.70;;;;;;;;;;5040817;28;20108;-69
2021/05/26 02:44:45;;;;;;;13.57;5.70;;;;;;;;;;5042941;28;20121;-69
2021/05/26 02:47:11;;;;;;;15.73;6.32;;;;;;;;;;5030401;28;20091;-70
2021/05/26 02:49:36;;;;;;;13.38;5.95;;;;;;;;;;5030459;28;20087;-69
2021/05/26 02:52:02;;;;;;;16.10;6.93;;;;;;;;;;5052384;28;20478;-69
2021/05/26 02:54:28;;;;;;;12.25;6.63;;;;;;;;;;5029046;28;20021;-69
2021/05/26 02:56:54;;;;;;;15.40;6.22;;;;;;;;;;5041529;28;20053;-69
2021/05/26 02:59:20;;;;;;;16.33;7.32;;;;;;;;;;5029500;28;20036;-69
2021/05/26 03:01:46;;;;;;;13.52;6.60;;;;;;;;;;5033377;28;20394;-70
2021/05/26 03:04:12;;;;;;;18.60;6.57;;;;;;;;;;5036778;28;20028;-70
2021/05/26 03:06:38;;;;;;;16.17;7.20;;;;;;;;;;5039947;28;20025;-69
2021/05/26 03:09:05;;;;;;;21.27;7.43;;;;;;;;;;5037640;28;20450;-70
2021/05/26 03:11:31;;;;;;;15.80;7.35;;;;;;;;;;5037364;28;20052;-69
2021/05/26 03:13:56;;;;;;;13.70;6.82;;;;;;;;;;5035717;28;20060;-70
2021/05/26 03:16:22;;;;;;;21.05;7.13;;;;;;;;;;5030298;28;20033;-70
2021/05/26 03:18:49;;;;;;;14.18;7.50;;;;;;;;;;5029803;28;20056;-70
2021/05/26 03:21:15;;;;;;;16.17;7.25;;;;;;;;;;5040661;28;20064;-69
2021/05/26 03:23:43;;;;;;;18.60;7.28;;;;;;;;;;5033811;28;20371;-69
2021/05/26 03:26:09;;;;;;;21.27;9.20;;;;;;;;;;5040670;28;20029;-69
2021/05/26 03:28:35;;;;;;;20.75;8.82;;;;;;;;;;5039212;28;20025;-70
2021/05/26 03:31:01;;;;;;;23.13;10.98;;;;;;;;;;5042171;28;20013;-69
2021/05/26 03:33:27;;;;;;;17.33;9.02;;;;;;;;;;5033352;28;20025;-70
2021/05/26 03:35:53;;;;;;;18.92;9.88;;;;;;;;;;5036321;28;20044;-70
2021/05/26 03:38:19;;;;;;;17.35;9.40;;;;;;;;;;5030233;28;20474;-69
2021/05/26 03:40:45;;;;;;;20.00;9.73;;;;;;;;;;5029807;28;20028;-69
2021/05/26 03:43:11;;;;;;;16.23;8.60;;;;;;;;;;5035327;28;20547;-70
2021/05/26 03:45:37;;;;;;;23.98;8.80;;;;;;;;;;5032385;28;20033;-69
2021/05/26 03:48:03;;;;;;;23.88;8.20;;;;;;;;;;5029964;28;20022;-70
2021/05/26 03:50:29;;;;;;;18.02;7.72;;;;;;;;;;5041736;28;20040;-70
2021/05/26 03:52:55;;;;;;;18.75;8.02;;;;;;;;;;5030201;28;20275;-69
2021/05/26 03:55:22;;;;;;;31.40;8.15;;;;;;;;;;5034015;28;20025;-70
2021/05/26 03:57:49;;;;;;;15.18;8.10;;;;;;;;;;5037341;28;20075;-70
2021/05/26 04:00:16;;;;;;;20.88;6.25;;;;;;;;;;5029801;28;20033;-70
2021/05/26 04:02:42;;;;;;;16.23;6.10;;;;;;;;;;5036300;28;20087;-70
2021/05/26 04:05:08;;;;;;;14.57;6.88;;;;;;;;;;5035343;28;20025;-70
2021/05/26 04:07:34;;;;;;;16.30;6.18;;;;;;;;;;5044666;28;20021;-70
2021/05/26 04:10:00;;;;;;;16.50;6.95;;;;;;;;;;5030009;28;20426;-70
2021/05/26 04:12:28;;;;;;;16.88;5.68;;;;;;;;;;5048386;28;20029;-70
2021/05/26 04:14:54;;;;;;;14.95;5.75;;;;;;;;;;5041586;28;20025;-69
2021/05/26 04:17:20;;;;;;;17.30;5.82;;;;;;;;;;5048126;28;20029;-69
2021/05/26 04:19:46;;;;;;;19.70;5.72;;;;;;;;;;5049402;28;20074;-69
2021/05/26 04:22:12;;;;;;;17.33;4.75;;;;;;;;;;5039768;28;20025;-69
2021/05/26 04:24:38;;;;;;;22.58;4.75;;;;;;;;;;5043350;28;20025;-69
2021/05/26 04:27:04;;;;;;;23.80;6.90;;;;;;;;;;5033012;28;20104;-69
2021/05/26 04:29:30;;;;;;;25.77;4.80;;;;;;;;;;5042159;28;20375;-69
2021/05/26 04:31:56;;;;;;;12.70;3.88;;;;;;;;;;5046371;28;20033;-69
2021/05/26 04:34:23;;;;;;;21.45;5.82;;;;;;;;;;5033508;28;20018;-70
2021/05/26 04:36:49;;;;;;;15.90;4.50;;;;;;;;;;5044593;28;20021;-70
2021/05/26 04:39:15;;;;;;;17.02;5.82;;;;;;;;;;5032995;28;20033;-69
2021/05/26 04:41:41;;;;;;;20.88;5.07;;;;;;;;;;5042129;28;20033;-69
2021/05/26 04:44:07;;;;;;;13.63;4.93;;;;;;;;;;5063070;28;20104;-69
2021/05/26 04:46:33;;;;;;;21.73;5.72;;;;;;;;;;5034937;28;20029;-69
2021/05/26 04:48:59;;;;;;;16.38;4.88;;;;;;;;;;5045621;28;20108;-70
2021/05/26 04:51:25;;;;;;;19.23;6.28;;;;;;;;;;5032890;28;20452;-70
2021/05/26 04:53:50;;;;;;;18.50;4.75;;;;;;;;;;5033190;28;20100;-69
2021/05/26 04:56:17;;;;;;;19.83;5.10;;;;;;;;;;5044270;28;20414;-70
2021/05/26 04:58:43;;;;;;;17.33;6.47;;;;;;;;;;5043778;28;20029;-70
2021/05/26 05:01:09;;;;;;;20.80;6.38;;;;;;;;;;5056481;28;20381;-70
2021/05/26 05:03:35;;;;;;;17.88;5.78;;;;;;;;;;5042745;28;20539;-69
2021/05/26 05:06:01;;;;;;;22.02;6.03;;;;;;;;;;5048507;28;20045;-69
2021/05/26 05:08:27;;;;;;;21.00;6.18;;;;;;;;;;5032636;28;20177;-70
2021/05/26 05:10:54;;;;;;;18.63;7.03;;;;;;;;;;5033426;28;20112;-69
2021/05/26 05:13:19;;;;;;;12.30;5.82;;;;;;;;;;5036556;28;20021;-69
2021/05/26 05:15:45;;;;;;;19.08;7.18;;;;;;;;;;5042900;28;20091;-69
2021/05/26 05:18:12;;;;;;;14.48;5.75;;;;;;;;;;5065238;28;20650;-69
2021/05/26 05:20:38;;;;;;;19.80;6.35;;;;;;;;;;5049814;28;20029;-70
2021/05/26 05:23:04;;;;;;;16.48;7.00;;;;;;;;;;5031769;28;20030;-70
2021/05/26 05:25:30;;;;;;;13.35;5.45;;;;;;;;;;5040214;28;20037;-69
2021/05/26 05:27:56;;;;;;;11.13;6.32;;;;;;;;;;5032336;28;20026;-70
2021/05/26 05:30:22;;;;;;;15.95;6.00;;;;;;;;;;5031578;28;20021;-70
2021/05/26 05:32:48;;;;;;;17.08;6.45;;;;;;;;;;5033865;28;20063;-70
2021/05/26 05:35:14;;;;;;;11.05;4.72;;;;;;;;;;5037088;28;20036;-70
2021/05/26 05:37:41;;;;;;;10.18;4.70;;;;;;;;;;5032188;28;20021;-70
2021/05/26 05:40:07;;;;;;;14.10;5.55;;;;;;;;;;5031731;28;20323;-70
2021/05/26 05:42:33;;;;;;;16.73;6.45;;;;;;;;;;5031585;28;20048;-70
2021/05/26 05:44:59;;;;;;;18.88;6.53;;;;;;;;;;5030522;28;20108;-70
2021/05/26 05:47:25;;;;;;;16.05;6.00;;;;;;;;;;5044300;28;20479;-70
2021/05/26 05:49:51;;;;;;;15.65;6.47;;;;;;;;;;5045266;28;20021;-70
2021/05/26 05:52:17;;;;;;;16.10;6.70;;;;;;;;;;5048708;28;20021;-70
2021/05/26 05:54:44;;;;;;;12.75;6.10;;;;;;;;;;5024616;28;20394;-70
2021/05/26 05:57:10;;;;;;;21.17;6.63;;;;;;;;;;5021611;28;20030;-71
2021/05/26 05:59:36;;;;;;;12.50;6.50;;;;;;;;;;5028019;28;20528;-69
2021/05/26 06:02:02;;;;;;;14.95;6.80;;;;;;;;;;5039389;28;20049;-70
2021/05/26 06:04:28;;;;;;;15.10;6.43;;;;;;;;;;5022258;28;20025;-70
2021/05/26 06:06:54;;;;;;;16.60;7.70;;;;;;;;;;5015969;28;20033;-71
2021/05/26 06:09:21;;;;;;;15.73;7.57;;;;;;;;;;5034920;28;20029;-71
2021/05/26 06:11:47;;;;;;;17.38;6.88;;;;;;;;;;5025723;28;20026;-70
2021/05/26 06:14:14;;;;;;;14.48;6.20;;;;;;;;;;5025532;28;20049;-68
2021/05/26 06:16:40;;;;;;;12.75;6.20;;;;;;;;;;5031568;28;20040;-71
2021/05/26 06:19:07;;;;;;;15.15;6.38;;;;;;;;;;5033619;28;20042;-71
2021/05/26 06:21:34;;;;;;;21.67;6.45;;;;;;;;;;5024544;28;20483;-69
2021/05/26 06:24:00;;;;;;;13.32;6.18;;;;;;;;;;5020470;28;20048;-69
2021/05/26 06:26:26;;;;;;;16.60;7.22;;;;;;;;;;5024397;28;20517;-69
2021/05/26 06:28:52;;;;;;;9.95;5.47;;;;;;;;;;5024918;28;20026;-69
2021/05/26 06:31:20;;;;;;;12.60;6.07;;;;;;;;;;5019734;28;20014;-69
2021/05/26 06:33:46;;;;;;;11.75;5.50;;;;;;;;;;5027485;28;20063;-69
2021/05/26 06:36:12;;;;;;;20.90;7.22;;;;;;;;;;5015555;28;20030;-69
2021/05/26 06:38:39;;;;;;;14.80;7.00;;;;;;;;;;5022518;28;20029;-69
2021/05/26 06:41:05;;;;;;;24.02;7.45;;;;;;;;;;5015568;28;20388;-69
2021/05/26 06:43:31;;;;;;;18.40;7.90;;;;;;;;;;5020667;28;20037;-69
2021/05/26 06:45:57;;;;;;;13.73;7.15;;;;;;;;;;5022124;28;20026;-70
2021/05/26 06:48:24;;;;;;;13.38;6.88;;;;;;;;;;5019039;28;20034;-69
2021/05/26 06:50:50;;;;;;;13.18;7.20;;;;;;;;;;5016780;28;20564;-69
2021/05/26 06:53:16;;;;;;;14.93;7.65;;;;;;;;;;5020009;28;20033;-69
2021/05/26 06:55:42;;;;;;;15.27;6.65;;;;;;;;;;5020415;28;20045;-69
2021/05/26 06:58:08;;;;;;;16.42;8.35;;;;;;;;;;5015097;28;20375;-69
2021/05/26 07:00:34;;;;;;;19.45;7.45;;;;;;;;;;5032589;28;20021;-69
2021/05/26 07:03:01;;;;;;;16.38;6.80;;;;;;;;;;5015073;28;20026;-69
2021/05/26 07:05:27;;;;;;;13.43;5.78;;;;;;;;;;5017026;28;20421;-69
2021/05/26 07:07:53;;;;;;;9.45;5.55;;;;;;;;;;5018654;28;20029;-69
2021/05/26 07:10:19;;;;;;;14.32;6.00;;;;;;;;;;5025810;28;20021;-70
2021/05/26 07:12:50;;;;;;;12.93;5.57;;;;;;;;;;5032917;28;20025;-70
2021/05/26 07:15:16;;;;;;;15.48;5.97;;;;;;;;;;5036407;28;20398;-70
2021/05/26 07:17:42;;;;;;;13.98;5.45;;;;;;;;;;5038040;28;20356;-70
2021/05/26 07:20:08;;;;;;;6.20;3.42;;;;;;;;;;5017720;28;20494;-69
2021/05/26 07:22:34;;;;;;;11.90;3.03;;;;;;;;;;5018902;28;20056;-69
2021/05/26 07:25:00;;;;;;;4.68;1.88;;;;;;;;;;5016669;28;20070;-70
2021/05/26 07:27:26;;;;;;;8.27;1.90;;;;;;;;;;5019111;28;20030;-69
2021/05/26 07:29:52;;;;;;;6.93;1.80;;;;;;;;;;5031600;28;20072;-69
2021/05/26 07:32:19;;;;;;;8.02;2.10;;;;;;;;;;5025677;28;20029;-69
2021/05/26 07:34:44;;;;;;;4.57;2.00;;;;;;;;;;5029682;28;20113;-69
2021/05/26 07:37:10;;;;;;;4.47;1.83;;;;;;;;;;5025207;28;20481;-69
2021/05/26 07:39:37;;;;;;;5.30;1.35;;;;;;;;;;5029166;28;20112;-69
2021/05/26 07:42:06;;;;;;;5.47;1.48;;;;;;;;;;5027039;28;20018;-69
2021/05/26 07:44:33;;;;;;;4.32;1.65;;;;;;;;;;5036162;28;20112;-69
2021/05/26 07:46:59;;;;;;;6.70;1.45;;;;;;;;;;5036709;28;20059;-70
2021/05/26 07:49:25;;;;;;;6.03;1.35;;;;;;;;;;5033945;28;20037;-70
2021/05/26 07:51:52;;;;;;;4.70;1.15;;;;;;;;;;5034547;28;20017;-71
2021/05/26 07:54:21;;;;;;;8.00;1.23;;;;;;;;;;5040388;28;20017;-73
2021/05/26 07:56:47;;;;;;;3.03;0.77;;;;;;;;;;5036755;28;20037;-73
2021/05/26 07:59:13;;;;;;;3.88;1.48;;;;;;;;;;5038236;28;20033;-73
2021/05/26 08:01:39;;;;;;;2.88;0.63;;;;;;;;;;5037613;28;20030;-73
2021/05/26 08:04:05;;;;;;;3.90;0.85;;;;;;;;;;5061757;28;20367;-73
2021/05/26 08:06:31;;;;;;;6.97;1.50;;;;;;;;;;5037403;28;20079;-73
2021/05/26 08:08:57;;;;;;;3.85;0.98;;;;;;;;;;5060557;28;20481;-73
2021/05/26 08:11:23;;;;;;;4.43;1.00;;;;;;;;;;5043734;28;20043;-73
2021/05/26 08:13:49;;;;;;;3.67;0.65;;;;;;;;;;5040244;28;20102;-73
2021/05/26 08:16:15;;;;;;;4.43;1.10;;;;;;;;;;5041620;28;20466;-72
2021/05/26 08:18:41;;;;;;;5.10;1.02;;;;;;;;;;5040803;28;20022;-72
2021/05/26 08:21:08;;;;;;;4.40;0.70;;;;;;;;;;5060126;28;20544;-72
2021/05/26 08:23:34;;;;;;;3.22;0.77;;;;;;;;;;5043581;28;20026;-72
2021/05/26 08:26:00;;;;;;;4.00;1.05;;;;;;;;;;5046414;28;20037;-74
2021/05/26 08:28:26;;;;;;;4.43;1.30;;;;;;;;;;5036056;28;20461;-72
2021/05/26 08:30:53;;;;;;;4.90;1.30;;;;;;;;;;5037169;28;20017;-74
2021/05/26 08:33:19;;;;;;;3.33;0.65;;;;;;;;;;5040169;28;20022;-73
2021/05/26 08:35:44;;;;;;;6.32;1.05;;;;;;;;;;5037257;28;20026;-74
2021/05/26 08:38:10;;;;;;;4.65;0.77;;;;;;;;;;5057203;28;20033;-73
2021/05/26 08:40:37;;;;;;;7.18;1.23;;;;;;;;;;5033992;28;20061;-74
2021/05/26 08:43:03;;;;;;;6.43;1.30;;;;;;;;;;5048084;28;20028;-73
2021/05/26 08:45:29;;;;;;;5.78;0.60;;;;;;;;;;5048951;28;20026;-74
2021/05/26 08:47:59;;;;;;;3.20;0.70;;;;;;;;;;5035690;28;20032;-73
2021/05/26 08:50:25;;;;;;;;;;;;;;;;;;5038382;28;20048;-73
2021/05/26 08:52:51;;;;;;;3.92;1.00;;;;;;;;;;5035426;28;19949;-74
2021/05/26 08:55:17;;;;;;;4.57;0.77;;;;;;;;;;5037397;28;20025;-74
2021/05/26 08:57:43;;;;;;;6.00;0.80;;;;;;;;;;5037040;28;20132;-73
2021/05/26 09:00:10;;;;;;;4.85;1.00;;;;;;;;;;5047129;28;20025;-72
2021/05/26 09:02:36;;;;;;;3.95;0.90;;;;;;;;;;5033929;28;20025;-72
2021/05/26 09:05:02;;;;;;;7.80;1.38;;;;;;;;;;5037605;28;20021;-72
2021/05/26 09:07:30;;;;;;;4.63;1.27;;;;;;;;;;5035843;28;20425;-71
2021/05/26 09:09:57;;;;;;;2.95;1.00;;;;;;;;;;5041488;28;20014;-71
2021/05/26 09:12:31;;;;;;;5.15;1.48;;;;;;;;;;5046318;28;20436;-71
2021/05/26 09:15:03;;;;;;;5.28;1.33;;;;;;;;;;5036784;28;20044;-71
2021/05/26 09:17:29;;;;;;;5.10;1.67;;;;;;;;;;5047370;28;20040;-71
2021/05/26 09:20:10;;;;;;;3.35;1.23;;;;;;;;;;5042786;28;20652;-71
2021/05/26 09:22:37;;;;;;;5.13;1.40;;;;;;;;;;5041603;28;20037;-71
2021/05/26 09:25:07;;;;;;;5.65;1.40;;;;;;;;;;5047341;28;20029;-71
2021/05/26 09:27:32;;;;;;;6.15;0.80;;;;;;;;;;5039659;28;20124;-71
2021/05/26 09:29:58;;;;;;;4.35;1.13;;;;;;;;;;5041705;28;20144;-71
2021/05/26 09:32:27;;;;;;;3.50;1.05;;;;;;;;;;5040386;28;20063;-71
2021/05/26 09:34:53;;;;;;;5.35;1.38;;;;;;;;;;5026783;28;20013;-71
2021/05/26 09:37:20;;;;;;;3.53;1.27;;;;;;;;;;5039535;28;20036;-71
2021/05/26 09:40:13;;;;;;;4.72;1.10;;;;;;;;;;5036130;28;20036;-72
2021/05/26 09:42:42;;;;;;;3.00;1.38;;;;;;;;;;5035785;28;20095;-71
2021/05/26 09:45:09;;;;;;;4.53;1.63;;;;;;;;;;5032560;28;20148;-71
2021/05/26 09:47:42;;;;;;;3.28;1.17;;;;;;;;;;5031064;28;20033;-71
2021/05/26 09:50:15;;;;;;;2.50;1.10;;;;;;;;;;5037162;28;20099;-72
2021/05/26 09:53:00;;;;;;;5.80;1.30;;;;;;;;;;5030760;28;20075;-72
2021/05/26 09:55:29;;;;;;;4.03;0.90;;;;;;;;;;5032446;28;20548;-71
2021/05/26 09:57:55;;;;;;;3.15;0.88;;;;;;;;;;5036085;28;20063;-72
2021/05/26 10:00:21;;;;;;;1.63;0.60;;;;;;;;;;5032996;28;20518;-72
2021/05/26 10:02:47;;;;;;;2.22;0.40;;;;;;;;;;5030487;28;20029;-71
2021/05/26 10:05:18;;;;;;;2.30;0.85;;;;;;;;;;5042652;28;20102;-71
2021/05/26 10:07:45;;;;;;;3.15;0.65;;;;;;;;;;5043274;28;20033;-71
2021/05/26 10:10:11;;;;;;;2.53;0.80;;;;;;;;;;5030654;28;20026;-70
2021/05/26 10:12:39;;;;;;;2.47;0.52;;;;;;;;;;5032453;28;20032;-70
2021/05/26 10:15:10;;;;;;;2.50;0.57;;;;;;;;;;5026257;28;20520;-71
2021/05/26 10:17:39;;;;;;;1.48;0.30;;;;;;;;;;5027019;28;20029;-70
2021/05/26 10:20:07;;;;;;;1.42;0.20;;;;;;;;;;5027389;28;20033;-70
2021/05/26 10:22:33;;;;;;;0.60;0.30;;;;;;;;;;5023745;28;20037;-70
2021/05/26 10:24:59;;;;;;;2.80;0.38;;;;;;;;;;5028029;28;20075;-70
2021/05/26 10:27:32;;;;;;;2.55;0.20;;;;;;;;;;5027657;28;20040;-70
2021/05/26 10:29:58;;;;;;;3.95;0.20;;;;;;;;;;5038488;28;20346;-70
2021/05/26 10:32:27;;;;;;;3.58;0.73;;;;;;;;;;5028440;28;20112;-70
2021/05/26 10:34:53;;;;;;;1.90;0.22;;;;;;;;;;5030938;28;20048;-70
2021/05/26 10:37:27;;;;;;;1.40;0.28;;;;;;;;;;5022573;28;20072;-70
2021/05/26 10:39:53;;;;;;;0.30;0.20;;;;;;;;;;5024527;28;20025;-70
2021/05/26 10:42:26;;;;;;;1.27;0.38;;;;;;;;;;5023788;28;20021;-70
2021/05/26 10:45:00;;;;;;;2.83;0.32;;;;;;;;;;5027951;28;20025;-70
2021/05/26 10:50:04;;;;;;;0.85;0.20;;;;;;;;;;5026987;28;20087;-70
2021/05/26 10:52:50;;;;;;;0.40;0.20;;;;;;;;;;5025616;28;20025;-70
2021/05/26 10:55:34;;;;;;;0.85;0.25;;;;;;;;;;5022796;28;20037;-70
2021/05/26 10:58:19;;;;;;;1.73;0.30;;;;;;;;;;5042339;28;20023;-71
2021/05/26 11:00:51;;;;;;;1.05;0.20;;;;;;;;;;5032972;28;20176;-70
2021/05/26 11:03:29;;;;;;;1.52;0.40;;;;;;;;;;5035445;28;20038;-70
2021/05/26 11:05:55;;;;;;;2.55;0.25;;;;;;;;;;5033710;28;20033;-71
2021/05/26 11:08:31;;;;;;;2.78;0.43;;;;;;;;;;5038636;28;20049;-71
2021/05/26 11:10:58;;;;;;;0.60;0.20;;;;;;;;;;5035469;28;20044;-71
2021/05/26 11:13:23;;;;;;;3.97;0.35;;;;;;;;;;5042996;28;20480;-71
2021/05/26 11:15:57;;;;;;;0.60;0.30;;;;;;;;;;5031910;28;20037;-71
2021/05/26 11:20:52;;;;;;;3.03;0.50;;;;;;;;;;5043652;28;20466;-71
2021/05/26 11:23:18;;;;;;;7.40;0.70;;;;;;;;;;5049878;28;20032;-71
2021/05/26 11:25:54;;;;;;;2.03;0.65;;;;;;;;;;5040107;28;20022;-72
2021/05/26 11:28:26;;;;;;;1.58;0.70;;;;;;;;;;5029759;28;20505;-71
2021/05/26 11:31:03;;;;;;;2.70;0.43;;;;;;;;;;5052941;28;20536;-71
2021/05/26 11:33:29;;;;;;;5.75;0.77;;;;;;;;;;5032741;28;20021;-70
2021/05/26 11:36:02;;;;;;;2.40;0.80;;;;;;;;;;5028234;28;20025;-71
2021/05/26 11:38:28;;;;;;;3.40;1.00;;;;;;;;;;5037192;28;20029;-71
2021/05/26 11:40:54;;;;;;;5.63;1.52;;;;;;;;;;5038599;28;20021;-70
2021/05/26 11:43:22;;;;;;;4.50;0.90;;;;;;;;;;5032370;28;20056;-70
2021/05/26 11:46:02;;;;;;;3.83;1.02;;;;;;;;;;5033740;28;20020;-70
2021/05/26 11:48:28;;;;;;;3.75;0.93;;;;;;;;;;5022752;28;20037;-70
2021/05/26 11:50:54;;;;;;;4.40;1.30;;;;;;;;;;5030802;28;20383;-71
2021/05/26 11:53:20;;;;;;;5.03;1.15;;;;;;;;;;5032056;28;20021;-71
2021/05/26 11:55:47;;;;;;;12.43;1.50;;;;;;;;;;5023792;28;20037;-71
2021/05/26 11:58:13;;;;;;;3.10;1.17;;;;;;;;;;5032368;28;20026;-71
2021/05/26 12:00:39;;;;;;;4.57;0.90;;;;;;;;;;5027347;28;20038;-71
2021/05/26 12:03:09;;;;;;;4.72;1.20;;;;;;;;;;5034229;28;20449;-71
2021/05/26 12:05:39;;;;;;;4.78;1.38;;;;;;;;;;5027460;28;20018;-71
2021/05/26 12:08:05;;;;;;;;;;;;;;;;;;5042449;28;20109;-71
2021/05/26 12:10:34;;;;;;;4.03;1.02;;;;;;;;;;5023111;28;20021;-70
2021/05/26 12:13:01;;;;;;;5.40;1.20;;;;;;;;;;5029906;28;20024;-71
2021/05/26 12:15:28;;;;;;;4.57;1.02;;;;;;;;;;5020199;28;20037;-71
2021/05/26 12:17:54;;;;;;;4.25;0.90;;;;;;;;;;5023606;28;20060;-71
2021/05/26 12:20:20;;;;;;;4.22;0.63;;;;;;;;;;5020610;28;20053;-70
2021/05/26 12:22:49;;;;;;;3.05;0.90;;;;;;;;;;5022456;28;20022;-71
2021/05/26 12:25:15;;;;;;;2.58;0.57;;;;;;;;;;5018331;28;20018;-71
2021/05/26 12:27:43;;;;;;;2.28;0.73;;;;;;;;;;5028338;28;20040;-70
2021/05/26 12:30:21;;;;;;;3.33;0.80;;;;;;;;;;5028019;28;20159;-71
2021/05/26 12:32:52;;;;;;;3.13;0.80;;;;;;;;;;5023205;28;20508;-71
2021/05/26 12:35:18;;;;;;;7.63;1.15;;;;;;;;;;5026708;28;20475;-70
2021/05/26 12:37:45;;;;;;;3.92;0.77;;;;;;;;;;5030604;28;20074;-70
2021/05/26 12:40:27;;;;;;;5.72;1.55;;;;;;;;;;5019658;28;20113;-70
2021/05/26 12:42:53;;;;;;;3.17;1.08;;;;;;;;;;5021417;28;20033;-70
2021/05/26 12:45:20;;;;;;;2.58;0.98;;;;;;;;;;5024557;28;20055;-72
2021/05/26 12:47:47;;;;;;;7.93;1.45;;;;;;;;;;5029065;28;20612;-70
2021/05/26 12:50:14;;;;;;;2.53;1.23;;;;;;;;;;5023683;28;20550;-70
2021/05/26 12:52:40;;;;;;;3.45;0.95;;;;;;;;;;5030515;28;20025;-71
2021/05/26 12:55:08;;;;;;;6.13;0.98;;;;;;;;;;5028430;28;20021;-72
2021/05/26 12:57:34;;;;;;;6.00;1.40;;;;;;;;;;5023193;28;20025;-71
2021/05/26 13:00:01;;;;;;;4.90;1.20;;;;;;;;;;5031462;28;20151;-70
2021/05/26 13:02:36;;;;;;;3.78;0.95;;;;;;;;;;5029353;28;20033;-71
2021/05/26 13:05:03;;;;;;;2.10;0.88;;;;;;;;;;5030011;28;20013;-71
2021/05/26 13:07:37;;;;;;;2.95;1.00;;;;;;;;;;5018336;28;20033;-71
2021/05/26 13:10:15;;;;;;;7.60;1.67;;;;;;;;;;5022989;28;20025;-70
2021/05/26 13:12:42;;;;;;;3.15;0.82;;;;;;;;;;5017695;28;20100;-71
2021/05/26 13:15:27;;;;;;;4.25;1.25;;;;;;;;;;5016899;28;20025;-70
2021/05/26 13:17:54;;;;;;;3.00;1.00;;;;;;;;;;5033551;28;20029;-70
2021/05/26 13:20:28;;;;;;;4.72;1.00;;;;;;;;;;5030128;28;20076;-72
2021/05/26 13:22:55;;;;;;;3.83;1.33;;;;;;;;;;5032332;28;20048;-72
2021/05/26 13:25:21;;;;;;;3.22;0.88;;;;;;;;;;5032744;28;20033;-72
2021/05/26 13:27:51;;;;;;;3.95;1.63;;;;;;;;;;5035201;28;20132;-72
2021/05/26 13:30:19;;;;;;;5.50;1.38;;;;;;;;;;5056199;28;20075;-72
2021/05/26 13:32:45;;;;;;;4.22;1.20;;;;;;;;;;5030051;28;20021;-72
2021/05/26 13:35:11;;;;;;;3.67;1.25;;;;;;;;;;5019944;28;20037;-72
2021/05/26 13:37:37;;;;;;;5.53;1.02;;;;;;;;;;5030647;28;20048;-72
2021/05/26 13:40:04;;;;;;;4.80;1.20;;;;;;;;;;5040209;28;20494;-72
2021/05/26 13:42:30;;;;;;;6.78;1.50;;;;;;;;;;5031728;28;20040;-72
2021/05/26 13:44:55;;;;;;;2.15;1.10;;;;;;;;;;5021703;28;20363;-72
2021/05/26 13:47:21;;;;;;;2.95;1.65;;;;;;;;;;5026330;28;20394;-72
2021/05/26 13:49:47;;;;;;;5.90;1.70;;;;;;;;;;5041285;28;20058;-72
2021/05/26 13:52:13;;;;;;;4.25;1.52;;;;;;;;;;5039659;28;20021;-72
2021/05/26 13:54:39;;;;;;;5.57;1.58;;;;;;;;;;5037531;28;20029;-72
2021/05/26 13:57:05;;;;;;;6.45;1.67;;;;;;;;;;5031692;28;20021;-72
2021/05/26 13:59:32;;;;;;;4.82;1.85;;;;;;;;;;5031671;28;20051;-72
2021/05/26 14:01:57;;;;;;;2.67;1.45;;;;;;;;;;5042728;28;20021;-72
2021/05/26 14:04:23;;;;;;;5.78;1.38;;;;;;;;;;5028578;28;20120;-71
2021/05/26 14:06:50;;;;;;;7.78;1.73;;;;;;;;;;5033994;28;20061;-71
2021/05/26 14:09:16;;;;;;;4.28;1.80;;;;;;;;;;5036325;28;20017;-71
2021/05/26 14:11:42;;;;;;;4.68;2.08;;;;;;;;;;5047607;28;20112;-71
2021/05/26 14:14:08;;;;;;;4.25;1.65;;;;;;;;;;5026279;28;20117;-72
2021/05/26 14:16:34;;;;;;;13.13;2.80;;;;;;;;;;5029292;28;20068;-72
2021/05/26 14:19:00;;;;;;;5.20;2.28;;;;;;;;;;5032494;28;20064;-71
2021/05/26 14:21:26;;;;;;;8.25;2.80;;;;;;;;;;5052744;28;20060;-72
2021/05/26 14:23:52;;;;;;;7.32;2.50;;;;;;;;;;5027672;28;20063;-72
2021/05/26 14:26:18;;;;;;;5.80;2.60;;;;;;;;;;5031344;28;20026;-71
2021/05/26 14:28:44;;;;;;;5.63;2.55;;;;;;;;;;5027634;28;20433;-72
2021/05/26 14:31:10;;;;;;;5.20;2.50;;;;;;;;;;5017267;28;20026;-72
2021/05/26 14:33:36;;;;;;;5.18;2.05;;;;;;;;;;5015652;28;20527;-72
2021/05/26 14:36:03;;;;;;;5.32;2.05;;;;;;;;;;5023275;28;20033;-72
2021/05/26 14:40:56;;;;;;;6.07;2.30;;;;;;;;;;5019237;28;20041;-72
2021/05/26 14:43:22;;;;;;;7.03;2.42;;;;;;;;;;5028432;28;20029;-72
2021/05/26 14:45:48;;;;;;;6.05;1.95;;;;;;;;;;5026192;28;20036;-73
2021/05/26 14:48:14;;;;;;;4.75;2.03;;;;;;;;;;5021769;28;20053;-72